首页
METAR-TAF:

METAR-TAF

机场 :

Driggs, 爱达荷州, 美国

纬度: 43-44-33N, 经度: 111-05-51W, 海拔: 1899米

当前天气观测

该预报发布于1小时和1分钟前的00:56 UTC
风速5节,风向南转南东
温度 4°C
湿度 81%
气压 1016 hPa
能見度: 16.1公里
少量云层高于4500英尺
散云层高于6500英尺
多云层高于8000英尺

METAR: KDIJ 210056Z AUTO 16005KT 10SM FEW045 SCT065 BKN080 04/01 A3000 RMK AO2 RAE06 SLP169 P0000 T00440006

时间: 19:57 (01:57 UTC)

预报

该预报发布于2小时和33分钟前的23:24 UTC
预报有效从21日的 00点(UTC)到 21日的 24点(UTC)
风速8节,风向西北
能見度: 10公里
散云层高于3000英尺
多云层高于6000英尺
小阵雨
从 21日的 0300点(UTC)
风速6节,风向多变
能見度: 10公里
散云层高于3000英尺
多云层高于6000英尺
附近有阵雨
从 21日的 0800点(UTC)
风速5节,风向多变
能見度: 10公里
散云层高于6000英尺
从 21日的 1800点(UTC)
风速10节,风向西转西北
能見度: 10公里
散云层高于3000英尺
多云层高于6000英尺
附近有阵雨,

TAF: KDIJ 202324Z 2100/2124 31008KT P6SM -SHRA SCT030 BKN060 FM210300 VRB06KT P6SM VCSH SCT030 BKN060 FM210800 VRB05KT P6SM SCT060 FM211800 30010KT P6SM VCSH SCT030 BKN060 AMD LTD TO CLD VIS AND WIND

超过4000个机场的气象观测和天气预报(METAR&TAF报告)。

可查询的气象台以黄色和红色小点在地图上表示。

将鼠标移到小点上方,可查看气象台名称。

然后点击查看天气观测和预报。

如需切换地图:点击带黑十字的绿色按钮放大地图;点击带横线的绿色按钮缩小地图;或者点击绿色箭头查看邻近地区的地图。


METAR-TAF: